Time,TemperatureF,DewpointF,PressureIn,WindDirection,WindDirectionDegrees,WindSpeedMPH,WindSpeedGustMPH,Humidity,HourlyPrecipIn,Conditions,Clouds,dailyrainin,SoftwareType,DateUTC
2013-09-22 00:01:00,56.3,51.8,29.89,SW,225,2.0,3.6,85,0.00,,,0.00,WUHU216HW,2013-09-22 07:01:00,
2013-09-22 00:06:00,56.2,51.7,29.89,SSW,203,0.9,3.6,85,0.00,,,0.00,WUHU216HW,2013-09-22 07:06:00,
2013-09-22 00:11:00,56.2,51.7,29.89,SSW,203,1.6,2.7,85,0.00,,,0.00,WUHU216HW,2013-09-22 07:11:00,
2013-09-22 00:16:00,56.0,51.5,29.89,WSW,248,0.4,2.5,85,0.00,,,0.00,WUHU216HW,2013-09-22 07:16:00,
2013-09-22 00:21:00,56.0,51.5,29.89,SSW,203,2.5,2.5,85,0.00,,,0.00,WUHU216HW,2013-09-22 07:21:00,
2013-09-22 00:26:00,55.8,51.3,29.89,SW,225,0.9,2.9,85,0.00,,,0.00,WUHU216HW,2013-09-22 07:26:00,
2013-09-22 00:31:00,55.8,51.3,29.89,WSW,248,2.5,2.9,85,0.00,,,0.00,WUHU216HW,2013-09-22 07:31:00,
2013-09-22 00:36:00,55.8,51.3,29.89,WSW,248,1.8,3.4,85,0.00,,,0.00,WUHU216HW,2013-09-22 07:36:00,
2013-09-22 00:41:00,56.0,51.5,29.89,WSW,248,4.9,4.9,85,0.00,,,0.00,WUHU216HW,2013-09-22 07:41:00,
2013-09-22 00:46:00,56.0,51.9,29.89,SW,225,2.2,4.9,86,0.00,,,0.00,WUHU216HW,2013-09-22 07:46:00,
2013-09-22 00:51:00,56.0,51.9,29.89,WSW,248,2.5,4.3,86,0.00,,,0.00,WUHU216HW,2013-09-22 07:51:00,
2013-09-22 00:56:00,55.8,51.7,29.89,SW,225,1.1,3.4,86,0.00,,,0.00,WUHU216HW,2013-09-22 07:56:00,
2013-09-22 01:01:00,55.8,51.7,29.89,West,270,0.9,3.4,86,0.00,,,0.00,WUHU216HW,2013-09-22 08:01:00,
2013-09-22 01:06:00,55.8,51.7,29.89,WSW,248,3.1,3.1,86,0.00,,,0.00,WUHU216HW,2013-09-22 08:06:00,
2013-09-22 01:11:00,55.8,51.7,29.89,WSW,248,2.9,3.8,86,0.00,,,0.00,WUHU216HW,2013-09-22 08:11:00,
2013-09-22 01:16:00,55.8,51.7,29.89,SW,225,2.2,3.8,86,0.00,,,0.00,WUHU216HW,2013-09-22 08:16:00,
2013-09-22 01:21:00,55.8,51.7,29.89,WSW,248,1.1,2.9,86,0.00,,,0.00,WUHU216HW,2013-09-22 08:21:00,
2013-09-22 01:26:00,55.8,51.7,29.89,WSW,248,2.5,4.7,86,0.00,,,0.00,WUHU216HW,2013-09-22 08:26:00,
2013-09-22 01:31:00,55.8,51.7,29.89,WSW,248,2.5,4.7,86,0.00,,,0.00,WUHU216HW,2013-09-22 08:31:00,
2013-09-22 01:36:00,55.8,51.7,29.89,WSW,248,3.6,3.6,86,0.00,,,0.00,WUHU216HW,2013-09-22 08:36:00,
2013-09-22 01:41:00,55.8,51.7,29.89,WSW,248,1.3,3.6,86,0.00,,,0.00,WUHU216HW,2013-09-22 08:41:00,
2013-09-22 01:46:00,55.8,51.7,29.89,WSW,248,3.1,3.6,86,0.00,,,0.00,WUHU216HW,2013-09-22 08:46:00,
2013-09-22 01:51:00,55.8,51.7,29.90,WSW,248,1.8,3.1,86,0.00,,,0.00,WUHU216HW,2013-09-22 08:51:00,
2013-09-22 01:56:00,55.6,51.5,29.90,West,270,0.4,3.4,86,0.00,,,0.00,WUHU216HW,2013-09-22 08:56:00,
2013-09-22 02:01:00,55.6,51.5,29.90,SW,225,1.8,3.4,86,0.00,,,0.00,WUHU216HW,2013-09-22 09:01:00,
2013-09-22 02:06:00,55.4,51.3,29.91,SW,225,1.8,1.8,86,0.00,,,0.00,WUHU216HW,2013-09-22 09:06:00,
2013-09-22 02:11:00,55.3,51.1,29.91,WSW,248,0.0,1.8,86,0.00,,,0.00,WUHU216HW,2013-09-22 09:11:00,
2013-09-22 02:16:00,55.1,51.0,29.91,SW,225,1.1,1.8,86,0.00,,,0.00,WUHU216HW,2013-09-22 09:16:00,
2013-09-22 02:21:00,55.1,51.0,29.91,SW,225,1.1,1.8,86,0.00,,,0.00,WUHU216HW,2013-09-22 09:21:00,
2013-09-22 02:26:00,54.7,50.6,29.90,SSW,203,0.4,1.8,86,0.00,,,0.00,WUHU216HW,2013-09-22 09:26:00,
2013-09-22 02:31:00,54.7,50.6,29.90,SSW,203,0.0,1.8,86,0.00,,,0.00,WUHU216HW,2013-09-22 09:31:00,
2013-09-22 02:36:00,54.4,50.2,29.91,SE,135,1.1,1.1,86,0.00,,,0.00,WUHU216HW,2013-09-22 09:36:00,
2013-09-22 02:41:00,54.4,50.2,29.91,SE,135,0.9,1.1,86,0.00,,,0.00,WUHU216HW,2013-09-22 09:41:00,
2013-09-22 02:46:00,54.2,50.0,29.91,SE,135,0.9,1.6,86,0.00,,,0.00,WUHU216HW,2013-09-22 09:46:00,
2013-09-22 02:51:00,54.0,49.9,29.90,SE,135,1.1,1.6,86,0.00,,,0.00,WUHU216HW,2013-09-22 09:51:00,
2013-09-22 02:56:00,54.0,49.9,29.91,SW,225,0.0,1.3,86,0.00,,,0.00,WUHU216HW,2013-09-22 09:56:00,
2013-09-22 03:01:00,53.8,49.7,29.90,SW,225,0.0,1.3,86,0.00,,,0.00,WUHU216HW,2013-09-22 10:01:00,
2013-09-22 03:06:00,53.6,49.5,29.90,WSW,248,0.0,0.0,86,0.00,,,0.00,WUHU216HW,2013-09-22 10:06:00,
2013-09-22 03:11:00,53.6,49.5,29.90,ESE,113,1.8,1.8,86,0.00,,,0.00,WUHU216HW,2013-09-22 10:11:00,
2013-09-22 03:16:00,53.6,49.5,29.91,ESE,113,1.8,1.8,86,0.00,,,0.00,WUHU216HW,2013-09-22 10:16:00,
2013-09-22 03:21:00,53.6,49.5,29.90,ESE,113,1.1,2.5,86,0.00,,,0.00,WUHU216HW,2013-09-22 10:21:00,
2013-09-22 03:26:00,53.6,49.5,29.90,ESE,113,1.1,2.5,86,0.00,,,0.00,WUHU216HW,2013-09-22 10:26:00,
2013-09-22 03:31:00,53.8,49.7,29.90,SSW,203,0.9,1.3,86,0.00,,,0.00,WUHU216HW,2013-09-22 10:31:00,
2013-09-22 03:36:00,53.8,50.1,29.90,SW,225,1.6,1.8,87,0.00,,,0.00,WUHU216HW,2013-09-22 10:36:00,
2013-09-22 03:41:00,54.0,50.2,29.90,WSW,248,1.6,1.8,87,0.00,,,0.00,WUHU216HW,2013-09-22 10:41:00,
2013-09-22 03:46:00,54.0,50.2,29.90,SW,225,0.0,1.8,87,0.00,,,0.00,WUHU216HW,2013-09-22 10:46:00,
2013-09-22 03:51:00,53.8,50.1,29.90,WSW,248,1.1,2.0,87,0.00,,,0.00,WUHU216HW,2013-09-22 10:51:00,
2013-09-22 03:58:00,53.6,49.9,29.90,WSW,248,2.2,2.2,87,0.00,,,0.00,WUHU216HW,2013-09-22 10:58:00,
2013-09-22 04:03:00,53.6,49.9,29.90,SW,225,1.1,2.2,87,0.00,,,0.00,WUHU216HW,2013-09-22 11:03:00,
2013-09-22 04:08:00,53.6,49.9,29.90,SW,225,0.9,2.0,87,0.00,,,0.00,WUHU216HW,2013-09-22 11:08:00,
2013-09-22 04:13:00,53.6,49.9,29.90,SSW,203,0.9,1.6,87,0.00,,,0.00,WUHU216HW,2013-09-22 11:13:00,
2013-09-22 04:18:00,53.5,49.7,29.90,SE,135,0.4,1.1,87,0.00,,,0.00,WUHU216HW,2013-09-22 11:18:00,
2013-09-22 04:23:00,53.5,49.7,29.91,SE,135,0.0,1.1,87,0.00,,,0.00,WUHU216HW,2013-09-22 11:23:00,
2013-09-22 04:28:00,53.5,49.7,29.91,SE,135,0.4,0.9,87,0.00,,,0.00,WUHU216HW,2013-09-22 11:28:00,
2013-09-22 04:33:00,53.6,49.9,29.91,SE,135,0.0,1.1,87,0.00,,,0.00,WUHU216HW,2013-09-22 11:33:00,
2013-09-22 04:38:00,53.6,49.9,29.91,SSW,203,0.7,1.8,87,0.00,,,0.00,WUHU216HW,2013-09-22 11:38:00,
2013-09-22 04:43:00,53.6,50.1,29.91,SW,225,0.7,1.8,88,0.00,,,0.00,WUHU216HW,2013-09-22 11:43:00,
2013-09-22 04:48:00,53.6,50.1,29.91,SSW,203,0.7,1.8,88,0.00,,,0.00,WUHU216HW,2013-09-22 11:48:00,
2013-09-22 04:53:00,53.6,50.1,29.90,SSW,203,0.0,1.1,88,0.00,,,0.00,WUHU216HW,2013-09-22 11:53:00,
2013-09-22 04:58:00,53.5,50.0,29.91,SSW,203,0.0,1.1,88,0.00,,,0.00,WUHU216HW,2013-09-22 11:58:00,
2013-09-22 05:03:00,53.6,50.1,29.91,SW,225,0.7,0.9,88,0.00,,,0.00,WUHU216HW,2013-09-22 12:03:00,
2013-09-22 05:08:00,53.5,50.0,29.91,SW,225,0.4,1.1,88,0.00,,,0.00,WUHU216HW,2013-09-22 12:08:00,
2013-09-22 05:13:00,53.5,50.0,29.91,South,180,0.2,1.1,88,0.00,,,0.00,WUHU216HW,2013-09-22 12:13:00,
2013-09-22 05:18:00,53.5,50.0,29.91,SSE,158,0.0,1.1,88,0.00,,,0.00,WUHU216HW,2013-09-22 12:18:00,
2013-09-22 05:23:00,53.5,50.0,29.91,SSE,158,0.0,1.1,88,0.00,,,0.00,WUHU216HW,2013-09-22 12:23:00,
2013-09-22 05:28:00,53.6,50.1,29.91,SSE,158,0.0,0.0,88,0.00,,,0.00,WUHU216HW,2013-09-22 12:28:00,
2013-09-22 05:33:00,53.6,50.1,29.91,SSE,158,0.0,0.0,88,0.00,,,0.00,WUHU216HW,2013-09-22 12:33:00,
2013-09-22 05:38:00,53.6,50.1,29.91,SSE,158,0.0,0.0,88,0.00,,,0.00,WUHU216HW,2013-09-22 12:38:00,
2013-09-22 05:43:00,53.5,50.0,29.91,SSE,158,0.7,0.7,88,0.00,,,0.00,WUHU216HW,2013-09-22 12:43:00,
2013-09-22 05:48:00,53.5,50.0,29.91,South,180,0.0,1.1,88,0.00,,,0.00,WUHU216HW,2013-09-22 12:48:00,
2013-09-22 05:53:00,53.5,50.0,29.91,SW,225,0.7,1.1,88,0.00,,,0.00,WUHU216HW,2013-09-22 12:53:00,
2013-09-22 05:58:00,53.3,49.8,29.91,WSW,248,0.0,1.1,88,0.00,,,0.00,WUHU216HW,2013-09-22 12:58:00,
2013-09-22 06:03:00,53.3,49.8,29.91,WSW,248,0.0,0.9,88,0.00,,,0.00,WUHU216HW,2013-09-22 13:03:00,
2013-09-22 06:08:00,53.3,49.8,29.91,WSW,248,0.0,0.0,88,0.00,,,0.00,WUHU216HW,2013-09-22 13:08:00,
2013-09-22 06:13:00,53.1,49.6,29.92,WSW,248,0.0,1.3,88,0.00,,,0.00,WUHU216HW,2013-09-22 13:13:00,
2013-09-22 06:18:00,53.3,49.8,29.92,SW,225,0.0,1.3,88,0.00,,,0.00,WUHU216HW,2013-09-22 13:18:00,
2013-09-22 06:23:00,53.3,49.8,29.92,SW,225,0.0,0.9,88,0.00,,,0.00,WUHU216HW,2013-09-22 13:23:00,
2013-09-22 06:28:00,53.1,49.6,29.92,SW,225,0.0,0.0,88,0.00,,,0.00,WUHU216HW,2013-09-22 13:28:00,
2013-09-22 06:33:00,53.1,49.6,29.92,SW,225,0.0,0.0,88,0.00,,,0.00,WUHU216HW,2013-09-22 13:33:00,
2013-09-22 06:38:00,53.1,49.6,29.93,SW,225,0.0,0.0,88,0.00,,,0.00,WUHU216HW,2013-09-22 13:38:00,
2013-09-22 06:43:00,52.9,49.4,29.93,SW,225,0.0,0.0,88,0.00,,,0.00,WUHU216HW,2013-09-22 13:43:00,
2013-09-22 06:48:00,52.9,49.4,29.93,WSW,248,0.4,1.1,88,0.00,,,0.00,WUHU216HW,2013-09-22 13:48:00,
2013-09-22 06:53:00,52.9,49.4,29.93,SW,225,0.7,1.1,88,0.00,,,0.00,WUHU216HW,2013-09-22 13:53:00,
2013-09-22 06:58:00,52.9,49.4,29.93,SW,225,0.7,1.1,88,0.00,,,0.00,WUHU216HW,2013-09-22 13:58:00,
2013-09-22 07:03:00,53.1,49.6,29.93,SW,225,0.7,0.9,88,0.00,,,0.00,WUHU216HW,2013-09-22 14:03:00,
2013-09-22 07:08:00,53.3,49.8,29.93,SW,225,0.4,0.7,88,0.00,,,0.00,WUHU216HW,2013-09-22 14:08:00,
2013-09-22 07:13:00,53.5,50.0,29.93,SW,225,0.0,0.7,88,0.00,,,0.00,WUHU216HW,2013-09-22 14:13:00,
2013-09-22 07:18:00,53.6,50.1,29.93,WSW,248,0.0,0.7,88,0.00,,,0.00,WUHU216HW,2013-09-22 14:18:00,
2013-09-22 07:23:00,53.8,50.7,29.93,WSW,248,1.1,1.1,89,0.00,,,0.00,WUHU216HW,2013-09-22 14:23:00,
2013-09-22 07:28:00,54.0,50.9,29.94,SSW,203,1.1,1.3,89,0.00,,,0.00,WUHU216HW,2013-09-22 14:28:00,
2013-09-22 07:33:00,54.2,51.0,29.94,SW,225,1.1,1.6,89,0.00,,,0.00,WUHU216HW,2013-09-22 14:33:00,
2013-09-22 07:38:00,54.4,51.2,29.94,SW,225,0.0,1.6,89,0.00,,,0.00,WUHU216HW,2013-09-22 14:38:00,
2013-09-22 07:43:00,54.5,51.3,29.94,WSW,248,1.3,1.6,89,0.00,,,0.00,WUHU216HW,2013-09-22 14:43:00,
2013-09-22 07:48:00,54.7,51.5,29.94,WSW,248,0.4,1.8,89,0.00,,,0.00,WUHU216HW,2013-09-22 14:48:00,
2013-09-22 07:53:00,54.9,51.7,29.94,WSW,248,1.8,1.8,89,0.00,,,0.00,WUHU216HW,2013-09-22 14:53:00,
2013-09-22 07:58:00,55.1,51.8,29.94,West,270,0.7,1.8,89,0.00,,,0.00,WUHU216HW,2013-09-22 14:58:00,
2013-09-22 08:03:00,55.1,51.8,29.94,SW,225,1.6,1.8,89,0.00,,,0.00,WUHU216HW,2013-09-22 15:03:00,
2013-09-22 08:08:00,55.3,52.0,29.94,SW,225,1.1,1.6,89,0.00,,,0.00,WUHU216HW,2013-09-22 15:08:00,
2013-09-22 08:13:00,55.6,52.4,29.94,SW,225,0.7,2.2,89,0.00,,,0.00,WUHU216HW,2013-09-22 15:13:00,
2013-09-22 08:18:00,55.8,52.6,29.94,WSW,248,2.0,2.2,89,0.00,,,0.00,WUHU216HW,2013-09-22 15:18:00,
2013-09-22 08:23:00,56.2,52.9,29.94,SW,225,3.1,3.4,89,0.00,,,0.00,WUHU216HW,2013-09-22 15:23:00,
2013-09-22 08:28:00,56.5,53.3,29.94,WSW,248,1.8,3.4,89,0.00,,,0.00,WUHU216HW,2013-09-22 15:28:00,
2013-09-22 08:33:00,56.7,53.5,29.95,SW,225,1.1,3.1,89,0.00,,,0.00,WUHU216HW,2013-09-22 15:33:00,
2013-09-22 08:38:00,57.1,53.6,29.95,WSW,248,1.8,4.3,88,0.00,,,0.00,WUHU216HW,2013-09-22 15:38:00,
2013-09-22 08:43:00,57.2,53.7,29.95,West,270,3.4,4.3,88,0.00,,,0.00,WUHU216HW,2013-09-22 15:43:00,
2013-09-22 08:48:00,57.6,53.7,29.95,WSW,248,2.9,4.5,87,0.00,,,0.00,WUHU216HW,2013-09-22 15:48:00,
2013-09-22 08:53:00,58.0,54.1,29.96,West,270,1.8,4.5,87,0.00,,,0.00,WUHU216HW,2013-09-22 15:53:00,
2013-09-22 08:58:00,58.1,54.6,29.96,SW,225,2.2,4.0,88,0.00,,,0.00,WUHU216HW,2013-09-22 15:58:00,
2013-09-22 09:03:00,58.7,54.8,29.96,WSW,248,2.9,4.0,87,0.00,,,0.00,WUHU216HW,2013-09-22 16:03:00,
2013-09-22 09:08:00,58.7,54.8,29.96,West,270,0.7,4.0,87,0.00,,,0.00,WUHU216HW,2013-09-22 16:08:00,
2013-09-22 09:13:00,58.9,54.7,29.96,SSE,158,1.3,3.1,86,0.00,,,0.00,WUHU216HW,2013-09-22 16:13:00,
2013-09-22 09:18:00,59.4,55.3,29.96,West,270,4.7,4.7,86,0.00,,,0.00,WUHU216HW,2013-09-22 16:18:00,
2013-09-22 09:23:00,59.6,55.1,29.96,WNW,293,2.5,4.7,85,0.00,,,0.00,WUHU216HW,2013-09-22 16:23:00,
2013-09-22 09:28:00,59.6,54.7,29.96,WNW,293,0.7,4.7,84,0.00,,,0.00,WUHU216HW,2013-09-22 16:28:00,
2013-09-22 09:33:00,59.4,54.3,29.96,North,0,0.4,2.5,83,0.00,,,0.00,WUHU216HW,2013-09-22 16:33:00,
2013-09-22 09:38:00,59.4,54.3,29.96,NNW,338,0.9,2.5,83,0.00,,,0.00,WUHU216HW,2013-09-22 16:38:00,
2013-09-22 09:43:00,59.6,54.5,29.96,NW,315,1.6,2.5,83,0.00,,,0.00,WUHU216HW,2013-09-22 16:43:00,
2013-09-22 09:48:00,59.8,54.6,29.96,WSW,248,2.9,3.4,83,0.00,,,0.00,WUHU216HW,2013-09-22 16:48:00,
2013-09-22 09:53:00,59.8,54.3,29.97,WSW,248,0.0,4.0,82,0.00,,,0.00,WUHU216HW,2013-09-22 16:53:00,
2013-09-22 09:58:00,59.9,54.5,29.97,WSW,248,0.0,4.0,82,0.00,,,0.00,WUHU216HW,2013-09-22 16:58:00,
2013-09-22 10:03:00,60.3,54.8,29.97,West,270,1.1,2.9,82,0.00,,,0.00,WUHU216HW,2013-09-22 17:03:00,
2013-09-22 10:08:00,60.7,55.2,29.97,SSW,203,2.0,2.9,82,0.00,,,0.00,WUHU216HW,2013-09-22 17:08:00,
2013-09-22 10:13:00,61.0,55.2,29.98,West,270,0.4,3.8,81,0.00,,,0.00,WUHU216HW,2013-09-22 17:13:00,
2013-09-22 10:18:00,61.2,55.1,29.98,SSW,203,1.1,4.3,80,0.00,,,0.00,WUHU216HW,2013-09-22 17:18:00,
2013-09-22 10:23:00,61.6,55.4,29.98,West,270,6.0,6.0,80,0.00,,,0.00,WUHU216HW,2013-09-22 17:23:00,
2013-09-22 10:28:00,61.6,55.0,29.98,NW,315,2.9,6.0,79,0.00,,,0.00,WUHU216HW,2013-09-22 17:28:00,
2013-09-22 10:33:00,61.9,55.4,29.98,West,270,3.4,6.0,79,0.00,,,0.00,WUHU216HW,2013-09-22 17:33:00,
2013-09-22 10:38:00,61.9,54.6,29.99,WSW,248,4.9,5.6,77,0.00,,,0.00,WUHU216HW,2013-09-22 17:38:00,
2013-09-22 10:43:00,61.9,54.3,29.99,West,270,4.0,5.6,76,0.00,,,0.00,WUHU216HW,2013-09-22 17:43:00,
2013-09-22 10:48:00,61.9,54.3,29.99,NNE,23,0.9,5.4,76,0.00,,,0.00,WUHU216HW,2013-09-22 17:48:00,
2013-09-22 10:53:00,62.3,54.9,29.99,WNW,293,2.9,8.5,77,0.00,,,0.00,WUHU216HW,2013-09-22 17:53:00,
2013-09-22 10:58:00,62.6,54.5,29.99,SSW,203,4.7,8.5,75,0.00,,,0.00,WUHU216HW,2013-09-22 17:58:00,
2013-09-22 11:03:00,63.0,55.3,29.99,SW,225,1.6,6.5,76,0.00,,,0.00,WUHU216HW,2013-09-22 18:03:00,
2013-09-22 11:08:00,63.4,55.6,29.98,SW,225,3.6,6.0,76,0.00,,,0.00,WUHU216HW,2013-09-22 18:08:00,
2013-09-22 11:13:00,63.5,55.8,29.98,West,270,4.3,5.6,76,0.00,,,0.00,WUHU216HW,2013-09-22 18:13:00,
2013-09-22 11:19:00,64.1,56.0,29.98,WNW,293,3.4,5.6,75,0.00,,,0.00,WUHU216HW,2013-09-22 18:19:00,
2013-09-22 11:24:00,64.3,55.1,29.98,North,0,1.1,5.1,72,0.00,,,0.00,WUHU216HW,2013-09-22 18:24:00,
2013-09-22 11:29:00,64.4,55.6,29.98,SW,225,1.6,3.1,73,0.00,,,0.00,WUHU216HW,2013-09-22 18:29:00,
2013-09-22 11:34:00,64.6,55.8,29.97,WSW,248,3.1,4.0,73,0.00,,,0.00,WUHU216HW,2013-09-22 18:34:00,
2013-09-22 11:39:00,64.8,56.0,29.97,SW,225,4.3,6.3,73,0.00,,,0.00,WUHU216HW,2013-09-22 18:39:00,
2013-09-22 11:44:00,65.2,56.3,29.98,West,270,3.6,6.3,73,0.00,,,0.00,WUHU216HW,2013-09-22 18:44:00,
2013-09-22 11:49:00,65.2,54.4,29.97,North,0,3.1,6.5,68,0.00,,,0.00,WUHU216HW,2013-09-22 18:49:00,
2013-09-22 11:54:00,65.2,54.7,29.97,NNW,338,1.6,6.5,69,0.00,,,0.00,WUHU216HW,2013-09-22 18:54:00,
2013-09-22 11:59:00,65.5,55.5,29.97,WNW,293,1.6,3.6,70,0.00,,,0.00,WUHU216HW,2013-09-22 18:59:00,
2013-09-22 12:04:00,65.5,54.6,29.97,ESE,113,0.7,4.0,68,0.00,,,0.00,WUHU216HW,2013-09-22 19:04:00,
2013-09-22 12:09:00,65.9,55.8,29.96,South,180,2.2,4.0,70,0.00,,,0.00,WUHU216HW,2013-09-22 19:09:00,
2013-09-22 12:14:00,66.2,55.7,29.96,SW,225,4.3,5.4,69,0.00,,,0.00,WUHU216HW,2013-09-22 19:14:00,
2013-09-22 12:19:00,66.6,56.1,29.97,SW,225,2.5,5.4,69,0.00,,,0.00,WUHU216HW,2013-09-22 19:19:00,
2013-09-22 12:24:00,67.0,56.4,29.97,West,270,2.5,5.1,69,0.00,,,0.00,WUHU216HW,2013-09-22 19:24:00,
2013-09-22 12:29:00,67.1,55.8,29.97,WSW,248,4.0,4.3,67,0.00,,,0.00,WUHU216HW,2013-09-22 19:29:00,
2013-09-22 12:34:00,67.3,55.5,29.97,North,0,1.6,4.3,66,0.00,,,0.00,WUHU216HW,2013-09-22 19:34:00,
2013-09-22 12:39:00,67.3,55.1,29.97,NNW,338,1.1,4.0,65,0.00,,,0.00,WUHU216HW,2013-09-22 19:39:00,
2013-09-22 12:44:00,67.7,55.9,29.96,North,0,0.9,8.1,66,0.00,,,0.00,WUHU216HW,2013-09-22 19:44:00,
2013-09-22 12:49:00,68.2,56.4,29.96,WSW,248,3.8,8.1,66,0.00,,,0.00,WUHU216HW,2013-09-22 19:49:00,
2013-09-22 12:54:00,68.8,56.5,29.96,NW,315,2.7,6.3,65,0.00,,,0.00,WUHU216HW,2013-09-22 19:54:00,
2013-09-22 12:59:00,68.8,55.2,29.96,NW,315,2.0,6.3,62,0.00,,,0.00,WUHU216HW,2013-09-22 19:59:00,
2013-09-22 13:04:00,69.1,55.5,29.96,WNW,293,2.0,8.5,62,0.00,,,0.00,WUHU216HW,2013-09-22 20:04:00,
2013-09-22 13:09:00,69.3,55.7,29.96,West,270,6.3,8.5,62,0.00,,,0.00,WUHU216HW,2013-09-22 20:09:00,
2013-09-22 13:14:00,69.5,55.1,29.96,WSW,248,7.6,8.5,60,0.00,,,0.00,WUHU216HW,2013-09-22 20:14:00,
2013-09-22 13:19:00,69.7,55.3,29.96,West,270,2.2,8.5,60,0.00,,,0.00,WUHU216HW,2013-09-22 20:19:00,
2013-09-22 13:24:00,69.5,55.1,29.96,WSW,248,0.4,7.2,60,0.00,,,0.00,WUHU216HW,2013-09-22 20:24:00,
2013-09-22 13:29:00,69.3,54.9,29.96,West,270,2.2,4.9,60,0.00,,,0.00,WUHU216HW,2013-09-22 20:29:00,
2013-09-22 13:34:00,69.5,55.1,29.95,SW,225,3.4,4.9,60,0.00,,,0.00,WUHU216HW,2013-09-22 20:34:00,
2013-09-22 13:39:00,69.8,54.9,29.95,South,180,1.6,4.3,59,0.00,,,0.00,WUHU216HW,2013-09-22 20:39:00,
2013-09-22 13:44:00,70.0,54.1,29.95,WNW,293,4.0,6.3,57,0.00,,,0.00,WUHU216HW,2013-09-22 20:44:00,
2013-09-22 13:49:00,70.0,54.6,29.95,SW,225,4.5,6.3,58,0.00,,,0.00,WUHU216HW,2013-09-22 20:49:00,
2013-09-22 13:54:00,70.2,54.3,29.95,WNW,293,5.4,8.3,57,0.00,,,0.00,WUHU216HW,2013-09-22 20:54:00,
2013-09-22 13:59:00,70.7,54.7,29.95,WSW,248,8.3,8.3,57,0.00,,,0.00,WUHU216HW,2013-09-22 20:59:00,
2013-09-22 14:04:00,71.1,54.1,29.95,South,180,3.1,8.3,55,0.00,,,0.00,WUHU216HW,2013-09-22 21:04:00,
2013-09-22 14:09:00,71.3,54.2,29.95,West,270,2.5,8.3,55,0.00,,,0.00,WUHU216HW,2013-09-22 21:09:00,
2013-09-22 14:14:00,71.6,55.1,29.95,SW,225,4.9,6.9,56,0.00,,,0.00,WUHU216HW,2013-09-22 21:14:00,
2013-09-22 14:19:00,71.8,55.2,29.95,WSW,248,4.5,8.5,56,0.00,,,0.00,WUHU216HW,2013-09-22 21:19:00,
2013-09-22 14:24:00,72.0,54.9,29.95,WSW,248,6.0,9.8,55,0.00,,,0.00,WUHU216HW,2013-09-22 21:24:00,
2013-09-22 14:29:00,72.0,55.4,29.94,SSW,203,2.5,9.8,56,0.00,,,0.00,WUHU216HW,2013-09-22 21:29:00,
2013-09-22 14:34:00,72.4,55.7,29.94,WSW,248,3.6,7.8,56,0.00,,,0.00,WUHU216HW,2013-09-22 21:34:00,
2013-09-22 14:39:00,72.5,54.8,29.94,West,270,8.5,8.7,54,0.00,,,0.00,WUHU216HW,2013-09-22 21:39:00,
2013-09-22 14:44:00,72.5,55.9,29.94,West,270,7.6,8.7,56,0.00,,,0.00,WUHU216HW,2013-09-22 21:44:00,
2013-09-22 14:49:00,72.7,55.0,29.94,WNW,293,1.8,8.5,54,0.00,,,0.00,WUHU216HW,2013-09-22 21:49:00,
2013-09-22 14:54:00,72.7,56.0,29.94,SW,225,5.6,7.6,56,0.00,,,0.00,WUHU216HW,2013-09-22 21:54:00,
2013-09-22 14:59:00,72.7,56.5,29.94,WSW,248,5.1,8.5,57,0.00,,,0.00,WUHU216HW,2013-09-22 21:59:00,
2013-09-22 15:04:00,72.7,56.0,29.94,West,270,4.9,8.5,56,0.00,,,0.00,WUHU216HW,2013-09-22 22:04:00,
2013-09-22 15:09:00,72.7,56.0,29.94,WSW,248,2.5,8.5,56,0.00,,,0.00,WUHU216HW,2013-09-22 22:09:00,
2013-09-22 15:14:00,72.9,56.7,29.94,WNW,293,8.5,8.5,57,0.00,,,0.00,WUHU216HW,2013-09-22 22:14:00,
2013-09-22 15:19:00,72.7,55.5,29.94,SSW,203,2.5,8.5,55,0.00,,,0.00,WUHU216HW,2013-09-22 22:19:00,
2013-09-22 15:24:00,72.9,56.2,29.94,West,270,0.7,8.5,56,0.00,,,0.00,WUHU216HW,2013-09-22 22:24:00,
2013-09-22 15:29:00,72.9,55.7,29.94,WNW,293,7.6,7.6,55,0.00,,,0.00,WUHU216HW,2013-09-22 22:29:00,
2013-09-22 15:34:00,72.9,55.2,29.94,WSW,248,3.1,7.6,54,0.00,,,0.00,WUHU216HW,2013-09-22 22:34:00,
2013-09-22 15:39:00,73.1,54.4,29.93,NNW,338,1.6,9.2,52,0.00,,,0.00,WUHU216HW,2013-09-22 22:39:00,
2013-09-22 15:44:00,73.1,54.8,29.93,WNW,293,2.2,9.2,53,0.00,,,0.00,WUHU216HW,2013-09-22 22:44:00,
2013-09-22 15:49:00,73.1,54.8,29.93,South,180,2.7,6.3,53,0.00,,,0.00,WUHU216HW,2013-09-22 22:49:00,
2013-09-22 15:54:00,73.3,55.0,29.93,WSW,248,1.6,6.3,53,0.00,,,0.00,WUHU216HW,2013-09-22 22:54:00,
2013-09-22 15:59:00,73.3,54.5,29.94,West,270,3.4,7.4,52,0.00,,,0.00,WUHU216HW,2013-09-22 22:59:00,
2013-09-22 16:04:00,73.1,54.4,29.94,SW,225,4.0,7.4,52,0.00,,,0.00,WUHU216HW,2013-09-22 23:04:00,
2013-09-22 16:09:00,72.7,54.0,29.93,WSW,248,5.6,8.3,52,0.00,,,0.00,WUHU216HW,2013-09-22 23:09:00,
2013-09-22 16:14:00,72.7,54.6,29.93,WNW,293,2.2,8.3,53,0.00,,,0.00,WUHU216HW,2013-09-22 23:14:00,
2013-09-22 16:19:00,72.7,54.0,29.93,NW,315,6.7,7.4,52,0.00,,,0.00,WUHU216HW,2013-09-22 23:19:00,
2013-09-22 16:24:00,72.5,53.8,29.93,NW,315,2.2,7.4,52,0.00,,,0.00,WUHU216HW,2013-09-22 23:24:00,
2013-09-22 16:29:00,72.4,54.2,29.93,WNW,293,5.8,6.9,53,0.00,,,0.00,WUHU216HW,2013-09-22 23:29:00,
2013-09-22 16:34:00,72.4,54.2,29.93,West,270,6.7,7.4,53,0.00,,,0.00,WUHU216HW,2013-09-22 23:34:00,
2013-09-22 16:39:00,72.4,53.6,29.93,WSW,248,5.4,8.3,52,0.00,,,0.00,WUHU216HW,2013-09-22 23:39:00,
2013-09-22 16:44:00,72.2,54.0,29.93,NW,315,4.0,8.3,53,0.00,,,0.00,WUHU216HW,2013-09-22 23:44:00,
2013-09-22 16:49:00,72.0,53.8,29.93,West,270,5.4,6.0,53,0.00,,,0.00,WUHU216HW,2013-09-22 23:49:00,
2013-09-22 16:54:00,71.6,53.6,29.93,WSW,248,3.4,6.7,53,0.00,,,0.00,WUHU216HW,2013-09-22 23:54:00,
2013-09-22 16:59:00,71.6,53.6,29.93,West,270,4.0,7.4,53,0.00,,,0.00,WUHU216HW,2013-09-22 23:59:00,
2013-09-22 17:04:00,71.6,53.6,29.93,West,270,4.3,7.4,53,0.00,,,0.00,WUHU216HW,2013-09-23 00:04:00,
2013-09-22 17:09:00,71.5,53.4,29.93,West,270,5.1,8.9,53,0.00,,,0.00,WUHU216HW,2013-09-23 00:09:00,
2013-09-22 17:14:00,71.5,52.8,29.94,West,270,4.7,8.9,52,0.00,,,0.00,WUHU216HW,2013-09-23 00:14:00,
2013-09-22 17:19:00,71.3,52.8,29.93,West,270,7.8,8.5,52,0.00,,,0.00,WUHU216HW,2013-09-23 00:19:00,
2013-09-22 17:24:00,70.9,52.9,29.93,NW,315,2.0,8.5,53,0.00,,,0.00,WUHU216HW,2013-09-23 00:24:00,
2013-09-22 17:29:00,70.9,52.4,29.93,West,270,8.1,11.4,52,0.00,,,0.00,WUHU216HW,2013-09-23 00:29:00,
2013-09-22 17:34:00,70.6,52.6,29.93,West,270,9.4,11.4,53,0.00,,,0.00,WUHU216HW,2013-09-23 00:34:00,
2013-09-22 17:39:00,70.4,52.4,29.93,WNW,293,4.7,9.4,53,0.00,,,0.00,WUHU216HW,2013-09-23 00:39:00,
2013-09-22 17:44:00,70.2,52.7,29.93,NW,315,4.0,9.4,54,0.00,,,0.00,WUHU216HW,2013-09-23 00:44:00,
2013-09-22 17:49:00,70.2,52.7,29.93,West,270,4.9,9.8,54,0.00,,,0.00,WUHU216HW,2013-09-23 00:49:00,
2013-09-22 17:54:00,70.0,52.6,29.94,WSW,248,5.6,9.8,54,0.00,,,0.00,WUHU216HW,2013-09-23 00:54:00,
2013-09-22 17:59:00,69.8,52.4,29.94,SW,225,4.9,8.5,54,0.00,,,0.00,WUHU216HW,2013-09-23 00:59:00,
2013-09-22 18:04:00,69.5,52.1,29.94,WSW,248,3.6,8.5,54,0.00,,,0.00,WUHU216HW,2013-09-23 01:04:00,
2013-09-22 18:09:00,69.5,52.6,29.94,West,270,5.8,9.4,55,0.00,,,0.00,WUHU216HW,2013-09-23 01:09:00,
2013-09-22 18:14:00,69.1,52.2,29.94,WSW,248,2.7,9.4,55,0.00,,,0.00,WUHU216HW,2013-09-23 01:14:00,
2013-09-22 18:19:00,68.9,52.6,29.95,WSW,248,3.6,6.5,56,0.00,,,0.00,WUHU216HW,2013-09-23 01:19:00,
2013-09-22 18:24:00,68.8,52.4,29.95,West,270,6.3,6.5,56,0.00,,,0.00,WUHU216HW,2013-09-23 01:24:00,
2013-09-22 18:29:00,68.2,52.8,29.95,SSW,203,4.9,7.6,58,0.00,,,0.00,WUHU216HW,2013-09-23 01:29:00,
2013-09-22 18:34:00,67.9,53.0,29.95,SW,225,4.0,7.8,59,0.00,,,0.00,WUHU216HW,2013-09-23 01:34:00,
2013-09-22 18:39:00,67.5,53.2,29.95,SW,225,3.4,7.8,60,0.00,,,0.00,WUHU216HW,2013-09-23 01:39:00,
2013-09-22 18:44:00,67.0,53.1,29.95,SW,225,5.4,6.3,61,0.00,,,0.00,WUHU216HW,2013-09-23 01:44:00,
2013-09-22 18:49:00,66.8,53.7,29.96,SW,225,7.2,7.2,63,0.00,,,0.00,WUHU216HW,2013-09-23 01:49:00,
2013-09-22 18:54:00,66.2,52.8,29.96,SW,225,5.4,8.1,62,0.00,,,0.00,WUHU216HW,2013-09-23 01:54:00,
2013-09-22 18:59:00,65.9,52.9,29.96,SW,225,3.1,8.1,63,0.00,,,0.00,WUHU216HW,2013-09-23 01:59:00,
2013-09-22 19:04:00,65.5,53.0,29.96,South,180,4.3,8.9,64,0.00,,,0.00,WUHU216HW,2013-09-23 02:04:00,
2013-09-22 19:09:00,65.2,52.7,29.96,SW,225,5.4,8.9,64,0.00,,,0.00,WUHU216HW,2013-09-23 02:09:00,
2013-09-22 19:14:00,65.0,52.9,29.96,WSW,248,2.7,6.3,65,0.00,,,0.00,WUHU216HW,2013-09-23 02:14:00,
2013-09-22 19:19:00,64.6,53.0,29.96,SW,225,4.5,6.9,66,0.00,,,0.00,WUHU216HW,2013-09-23 02:19:00,
2013-09-22 19:24:00,64.4,52.8,29.95,SSE,158,3.1,6.9,66,0.00,,,0.00,WUHU216HW,2013-09-23 02:24:00,
2013-09-22 19:29:00,64.1,52.9,29.96,SSW,203,2.2,6.9,67,0.00,,,0.00,WUHU216HW,2013-09-23 02:29:00,
2013-09-22 19:34:00,63.9,53.2,29.96,South,180,4.9,5.4,68,0.00,,,0.00,WUHU216HW,2013-09-23 02:34:00,
2013-09-22 19:39:00,63.5,52.8,29.96,SE,135,5.1,5.4,68,0.00,,,0.00,WUHU216HW,2013-09-23 02:39:00,
2013-09-22 19:44:00,63.4,53.0,29.96,SW,225,4.7,6.3,69,0.00,,,0.00,WUHU216HW,2013-09-23 02:44:00,
2013-09-22 19:49:00,63.2,53.3,29.96,WSW,248,3.8,6.3,70,0.00,,,0.00,WUHU216HW,2013-09-23 02:49:00,
2013-09-22 19:54:00,63.0,53.5,29.97,SW,225,3.6,7.6,71,0.00,,,0.00,WUHU216HW,2013-09-23 02:54:00,
2013-09-22 19:59:00,62.8,53.6,29.97,SW,225,5.4,7.6,72,0.00,,,0.00,WUHU216HW,2013-09-23 02:59:00,
2013-09-22 20:04:00,62.6,53.5,29.97,SSW,203,2.9,6.9,72,0.00,,,0.00,WUHU216HW,2013-09-23 03:04:00,
2013-09-22 20:09:00,62.5,53.3,29.97,SW,225,4.5,6.3,72,0.00,,,0.00,WUHU216HW,2013-09-23 03:09:00,
2013-09-22 20:14:00,62.3,53.5,29.97,SW,225,4.0,5.6,73,0.00,,,0.00,WUHU216HW,2013-09-23 03:14:00,
2013-09-22 20:19:00,62.1,53.4,29.97,SW,225,3.8,6.5,73,0.00,,,0.00,WUHU216HW,2013-09-23 03:19:00,
2013-09-22 20:24:00,61.9,53.2,29.97,SSW,203,2.9,6.5,73,0.00,,,0.00,WUHU216HW,2013-09-23 03:24:00,
2013-09-22 20:29:00,61.7,53.0,29.97,SSW,203,3.1,6.3,73,0.00,,,0.00,WUHU216HW,2013-09-23 03:29:00,
2013-09-22 20:34:00,61.6,52.8,29.97,SSW,203,5.4,6.7,73,0.00,,,0.00,WUHU216HW,2013-09-23 03:34:00,
2013-09-22 20:39:00,61.6,53.2,29.97,SW,225,1.8,6.7,74,0.00,,,0.00,WUHU216HW,2013-09-23 03:39:00,
2013-09-22 20:44:00,61.4,53.0,29.97,SW,225,1.6,5.4,74,0.00,,,0.00,WUHU216HW,2013-09-23 03:44:00,
2013-09-22 20:49:00,61.2,52.9,29.98,WNW,293,1.3,5.6,74,0.00,,,0.00,WUHU216HW,2013-09-23 03:49:00,
2013-09-22 20:54:00,61.0,53.1,29.98,SW,225,3.4,5.6,75,0.00,,,0.00,WUHU216HW,2013-09-23 03:54:00,
2013-09-22 20:59:00,61.0,53.8,29.98,SW,225,3.4,5.4,77,0.00,,,0.00,WUHU216HW,2013-09-23 03:59:00,
2013-09-22 21:01:00,60.8,53.6,29.99,WSW,248,1.3,5.4,77,0.00,,,0.00,WUHU216HW,2013-09-23 04:01:00,
2013-09-22 21:02:00,60.8,53.3,29.98,SW,225,2.7,5.4,76,0.00,,,0.00,WUHU216HW,2013-09-23 04:02:00,
2013-09-22 21:07:00,60.8,53.3,29.98,SW,225,2.7,5.6,76,0.00,,,0.00,WUHU216HW,2013-09-23 04:07:00,
2013-09-22 21:12:00,60.8,53.3,29.99,SSW,203,4.0,5.6,76,0.00,,,0.00,WUHU216HW,2013-09-23 04:12:00,
2013-09-22 21:17:00,60.7,53.1,29.99,WSW,248,3.6,4.9,76,0.00,,,0.00,WUHU216HW,2013-09-23 04:17:00,
2013-09-22 21:22:00,60.5,53.3,29.98,West,270,2.9,4.9,77,0.00,,,0.00,WUHU216HW,2013-09-23 04:22:00,
2013-09-22 21:27:00,60.5,53.3,29.99,SSW,203,4.3,4.9,77,0.00,,,0.00,WUHU216HW,2013-09-23 04:27:00,
2013-09-22 21:32:00,60.3,53.5,29.99,SSW,203,4.0,6.0,78,0.00,,,0.00,WUHU216HW,2013-09-23 04:32:00,
2013-09-22 21:37:00,60.3,53.5,29.99,SSE,158,2.9,6.0,78,0.00,,,0.00,WUHU216HW,2013-09-23 04:37:00,
2013-09-22 21:42:00,60.1,53.6,29.98,South,180,6.3,6.3,79,0.00,,,0.00,WUHU216HW,2013-09-23 04:42:00,
2013-09-22 21:47:00,60.1,53.6,29.99,SSW,203,2.5,6.3,79,0.00,,,0.00,WUHU216HW,2013-09-23 04:47:00,
2013-09-22 21:52:00,59.9,53.5,29.99,SW,225,2.2,6.3,79,0.00,,,0.00,WUHU216HW,2013-09-23 04:52:00,
2013-09-22 21:57:00,59.8,53.3,29.99,South,180,2.5,4.9,79,0.00,,,0.00,WUHU216HW,2013-09-23 04:57:00,
2013-09-22 22:02:00,59.8,53.3,29.99,SSW,203,4.0,4.7,79,0.00,,,0.00,WUHU216HW,2013-09-23 05:02:00,
2013-09-22 22:07:00,59.6,53.5,29.99,SSW,203,4.0,5.1,80,0.00,,,0.00,WUHU216HW,2013-09-23 05:07:00,
2013-09-22 22:12:00,59.4,53.3,29.99,WSW,248,3.6,5.4,80,0.00,,,0.00,WUHU216HW,2013-09-23 05:12:00,
2013-09-22 22:17:00,59.4,53.3,29.99,WSW,248,3.4,5.4,80,0.00,,,0.00,WUHU216HW,2013-09-23 05:17:00,
2013-09-22 22:22:00,59.4,53.3,29.99,South,180,0.7,3.8,80,0.00,,,0.00,WUHU216HW,2013-09-23 05:22:00,
2013-09-22 22:27:00,59.2,53.1,29.99,South,180,2.7,4.3,80,0.00,,,0.00,WUHU216HW,2013-09-23 05:27:00,
2013-09-22 22:32:00,59.0,52.9,29.99,SW,225,3.4,4.7,80,0.00,,,0.00,WUHU216HW,2013-09-23 05:32:00,
2013-09-22 22:37:00,59.0,52.9,29.99,WSW,248,2.7,4.7,80,0.00,,,0.00,WUHU216HW,2013-09-23 05:37:00,
2013-09-22 22:42:00,58.9,53.1,29.99,SSW,203,3.1,3.8,81,0.00,,,0.00,WUHU216HW,2013-09-23 05:42:00,
2013-09-22 22:47:00,58.9,53.1,29.99,SSW,203,1.8,3.8,81,0.00,,,0.00,WUHU216HW,2013-09-23 05:47:00,
2013-09-22 22:52:00,58.7,52.9,29.99,SSW,203,0.7,3.6,81,0.00,,,0.00,WUHU216HW,2013-09-23 05:52:00,
2013-09-22 22:57:00,58.7,52.6,29.99,SW,225,1.6,2.5,80,0.00,,,0.00,WUHU216HW,2013-09-23 05:57:00,
2013-09-22 23:02:00,58.5,52.4,29.99,WSW,248,1.3,2.5,80,0.00,,,0.00,WUHU216HW,2013-09-23 06:02:00,
2013-09-22 23:07:00,58.3,52.2,29.99,SW,225,1.1,2.7,80,0.00,,,0.00,WUHU216HW,2013-09-23 06:07:00,
2013-09-22 23:12:00,58.3,52.2,29.99,SW,225,0.7,2.7,80,0.00,,,0.00,WUHU216HW,2013-09-23 06:12:00,
2013-09-22 23:17:00,58.1,52.0,29.99,SSW,203,1.1,2.0,80,0.00,,,0.00,WUHU216HW,2013-09-23 06:17:00,
2013-09-22 23:22:00,58.0,51.8,29.99,SSW,203,1.1,1.6,80,0.00,,,0.00,WUHU216HW,2013-09-23 06:22:00,
2013-09-22 23:27:00,57.8,52.0,29.99,South,180,1.8,2.0,81,0.00,,,0.00,WUHU216HW,2013-09-23 06:27:00,
2013-09-22 23:32:00,57.6,51.9,29.99,WSW,248,1.3,2.2,81,0.00,,,0.00,WUHU216HW,2013-09-23 06:32:00,
2013-09-22 23:37:00,57.6,51.9,29.99,SW,225,1.8,2.2,81,0.00,,,0.00,WUHU216HW,2013-09-23 06:37:00,
2013-09-22 23:42:00,57.4,51.7,29.99,SW,225,1.1,2.0,81,0.00,,,0.00,WUHU216HW,2013-09-23 06:42:00,
2013-09-22 23:47:00,57.4,51.7,29.99,South,180,1.8,2.7,81,0.00,,,0.00,WUHU216HW,2013-09-23 06:47:00,
2013-09-22 23:52:00,57.2,51.5,30.00,South,180,2.0,2.7,81,0.00,,,0.00,WUHU216HW,2013-09-23 06:52:00,
2013-09-22 23:57:00,57.2,51.8,29.99,WSW,248,1.8,2.7,82,0.00,,,0.00,WUHU216HW,2013-09-23 06:57:00,